createdAt,value
2023-01-04T00:01:19.549Z,101875.47
2023-01-04T00:03:46.276Z,101864.78
2023-01-04T00:06:15.749Z,101859.38
2023-01-04T00:08:42.322Z,101855.81
2023-01-04T00:11:20.691Z,101853.13
2023-01-04T00:13:50.446Z,101837.06
2023-01-04T00:16:19.682Z,101837.06
2023-01-04T00:18:47.167Z,101834.47
2023-01-04T00:21:19.162Z,101826.47
2023-01-04T00:23:49.021Z,101825.50
2023-01-04T00:26:19.064Z,101832.81
2023-01-04T00:28:51.786Z,101815.78
2023-01-04T00:31:21.421Z,101815.69
2023-01-04T00:33:48.071Z,101813.88
2023-01-04T00:36:15.282Z,101810.22
2023-01-04T00:38:42.682Z,101803.84
2023-01-04T00:41:23.081Z,101798.56
2023-01-04T00:43:54.921Z,101793.06
2023-01-04T00:46:21.523Z,101794.91
2023-01-04T00:48:49.105Z,101779.81
2023-01-04T00:51:15.807Z,101774.41
2023-01-04T00:53:42.342Z,101764.69
2023-01-04T00:56:08.841Z,101767.28
2023-01-04T00:58:35.334Z,101751.13
2023-01-04T01:01:08.648Z,101766.31
2023-01-04T01:03:38.829Z,101750.25
2023-01-04T01:06:07.272Z,101748.44
2023-01-04T01:08:34.602Z,101744.88
2023-01-04T01:11:09.801Z,101748.34
2023-01-04T01:13:37.858Z,101746.50
2023-01-04T01:16:06.388Z,101741.00
2023-01-04T01:18:34.789Z,101736.47
2023-01-04T01:21:05.604Z,101728.41
2023-01-04T01:23:32.201Z,101739.09
2023-01-04T01:26:03.089Z,101737.25
2023-01-04T01:28:30.204Z,101728.09
2023-01-04T01:31:02.452Z,101722.72
2023-01-04T01:33:33.837Z,101718.97
2023-01-04T01:36:02.047Z,101718.13
2023-01-04T01:38:28.655Z,101703.69
2023-01-04T01:40:55.210Z,101710.78
2023-01-04T01:43:43.122Z,101713.38
2023-01-04T01:46:10.844Z,101709.63
2023-01-04T01:48:38.522Z,101714.91
2023-01-04T01:51:05.880Z,101707.69
2023-01-04T01:53:36.771Z,101701.22
2023-01-04T01:56:06.075Z,101694.78
2023-01-04T01:58:36.915Z,101706.41
2023-01-04T02:01:03.467Z,101696.50
2023-01-04T02:03:37.634Z,101696.41
2023-01-04T02:06:08.455Z,101698.03
2023-01-04T02:08:38.120Z,101694.25
2023-01-04T02:11:06.078Z,101694.16
2023-01-04T02:13:53.306Z,101687.78
2023-01-04T02:16:47.393Z,101689.53
2023-01-04T02:19:35.689Z,101684.25
2023-01-04T02:22:20.903Z,101685.00
2023-01-04T02:25:11.340Z,101690.50
2023-01-04T02:27:59.565Z,101679.59
2023-01-04T02:30:44.126Z,101678.44
2023-01-04T02:33:53.967Z,101684.69
2023-01-04T02:36:40.782Z,101661.19
2023-01-04T02:39:35.219Z,101666.38
2023-01-04T02:43:02.491Z,101655.56
2023-01-04T02:45:39.055Z,101652.03
2023-01-04T02:48:25.656Z,101643.81
2023-01-04T02:50:58.034Z,101641.13
2023-01-04T02:53:33.173Z,101625.81
2023-01-04T02:56:10.261Z,101630.13
2023-01-04T02:59:02.216Z,101627.31
2023-01-04T03:02:01.116Z,101623.56
2023-01-04T03:04:55.066Z,101612.66
2023-01-04T03:07:46.502Z,101616.13
2023-01-04T03:10:17.818Z,101604.25
2023-01-04T03:12:52.448Z,101605.97
2023-01-04T03:15:40.873Z,101588.81
2023-01-04T03:18:13.704Z,101590.38
2023-01-04T03:20:42.515Z,101595.66
2023-01-04T03:23:31.108Z,101585.72
2023-01-04T03:26:28.843Z,101577.53
2023-01-04T03:29:18.848Z,101579.25
2023-01-04T03:32:25.723Z,101571.06
2023-01-04T03:35:13.015Z,101572.69
2023-01-04T03:38:22.447Z,101575.25
2023-01-04T03:41:22.558Z,101568.91
2023-01-04T03:44:23.928Z,101575.91
2023-01-04T03:47:14.968Z,101565.00
2023-01-04T03:49:50.039Z,101559.50
2023-01-04T03:52:18.257Z,101554.88
2023-01-04T03:54:48.422Z,101552.09
2023-01-04T03:57:16.335Z,101543.00
2023-01-04T03:59:50.352Z,101540.31
2023-01-04T04:02:24.639Z,101541.94
2023-01-04T04:05:10.105Z,101530.81
2023-01-04T04:07:55.004Z,101535.13
2023-01-04T04:10:21.516Z,101534.91
2023-01-04T04:12:48.935Z,101526.91
2023-01-04T04:15:16.267Z,101534.03
2023-01-04T04:17:42.828Z,101527.56
2023-01-04T04:20:10.272Z,101533.69
2023-01-04T04:22:36.894Z,101527.31
2023-01-04T04:25:03.776Z,101529.81
2023-01-04T04:27:30.368Z,101522.47
2023-01-04T04:29:56.906Z,101522.22
2023-01-04T04:32:23.450Z,101515.75
2023-01-04T04:34:49.989Z,101521.91
2023-01-04T04:37:16.794Z,101515.53
2023-01-04T04:39:43.345Z,101510.97
2023-01-04T04:42:09.894Z,101509.16
2023-01-04T04:44:36.570Z,101502.66
2023-01-04T04:47:03.225Z,101499.22
2023-01-04T04:49:30.293Z,101501.78
2023-01-04T04:51:56.839Z,101490.03
2023-01-04T04:54:23.455Z,101490.88
2023-01-04T04:56:50.391Z,101493.47
2023-01-04T04:59:17.460Z,101490.66
2023-01-04T05:01:44.099Z,101502.19
2023-01-04T05:04:16.498Z,101500.38
2023-01-04T05:06:44.294Z,101490.44
2023-01-04T05:09:12.411Z,101483.06
2023-01-04T05:11:57.463Z,101474.84
2023-01-04T05:14:24.342Z,101482.72
2023-01-04T05:16:51.127Z,101486.28
2023-01-04T05:19:18.147Z,101483.47
2023-01-04T05:21:44.868Z,101480.91
2023-01-04T05:24:12.598Z,101473.53
2023-01-04T05:26:40.069Z,101471.59
2023-01-04T05:29:06.647Z,101475.03
2023-01-04T05:31:33.162Z,101464.22
2023-01-04T05:33:59.706Z,101463.13
2023-01-04T05:36:26.711Z,101459.34
2023-01-04T05:38:53.222Z,101456.41
2023-01-04T05:41:38.022Z,101451.75
2023-01-04T05:44:04.640Z,101442.56
2023-01-04T05:46:31.243Z,101438.13
2023-01-04T05:48:58.439Z,101443.28
2023-01-04T05:51:24.977Z,101437.81
2023-01-04T05:53:51.527Z,101436.81
2023-01-04T05:56:18.123Z,101428.59
2023-01-04T05:58:44.830Z,101434.75
2023-01-04T06:01:15.478Z,101427.75
2023-01-04T06:03:42.242Z,101424.81
2023-01-04T06:06:08.836Z,101419.28
2023-01-04T06:08:35.419Z,101433.66
2023-01-04T06:11:01.940Z,101429.13
2023-01-04T06:13:28.442Z,101422.63
2023-01-04T06:15:54.958Z,101418.94
2023-01-04T06:18:21.492Z,101412.66
2023-01-04T06:20:52.058Z,101409.84
2023-01-04T06:23:18.622Z,101400.75
2023-01-04T06:25:45.121Z,101416.84
2023-01-04T06:28:11.663Z,101424.72
2023-01-04T06:30:38.268Z,101420.19
2023-01-04T06:33:04.872Z,101411.09
2023-01-04T06:35:31.429Z,101410.84
2023-01-04T06:37:58.012Z,101408.16
2023-01-04T06:40:24.617Z,101404.34
2023-01-04T06:42:51.211Z,101412.34
2023-01-04T06:45:17.742Z,101406.94
2023-01-04T06:47:44.770Z,101404.97
2023-01-04T06:50:11.754Z,101398.63
2023-01-04T06:52:38.334Z,101401.31
2023-01-04T06:55:06.640Z,101409.31
2023-01-04T06:57:33.180Z,101413.59
2023-01-04T06:59:59.758Z,101421.72
2023-01-04T07:02:26.982Z,101415.34
2023-01-04T07:04:53.700Z,101426.16
2023-01-04T07:07:20.413Z,101418.03
2023-01-04T07:09:47.009Z,101418.91
2023-01-04T07:12:13.523Z,101404.53
2023-01-04T07:14:40.079Z,101401.81
2023-01-04T07:17:06.621Z,101400.84
2023-01-04T07:19:33.161Z,101417.06
2023-01-04T07:22:01.679Z,101401.69
2023-01-04T07:24:30.656Z,101388.81
2023-01-04T07:26:59.949Z,101390.53
2023-01-04T07:29:26.582Z,101388.56
2023-01-04T07:31:53.792Z,101383.03
2023-01-04T07:34:22.937Z,101378.38
2023-01-04T07:36:50.090Z,101378.13
2023-01-04T07:39:18.189Z,101379.72
2023-01-04T07:41:47.116Z,101386.59
2023-01-04T07:44:21.766Z,101368.41
2023-01-04T07:46:48.420Z,101373.56
2023-01-04T07:49:18.538Z,101365.09
2023-01-04T07:51:47.260Z,101359.31
2023-01-04T07:54:14.759Z,101363.41
2023-01-04T07:56:41.398Z,101358.59
2023-01-04T07:59:09.181Z,101351.97
2023-01-04T08:01:37.903Z,101349.75
2023-01-04T08:04:06.230Z,101334.97
2023-01-04T08:06:33.545Z,101332.03
2023-01-04T08:09:00.839Z,101326.59
2023-01-04T08:11:27.760Z,101338.28
2023-01-04T08:13:54.298Z,101343.56
2023-01-04T08:16:22.683Z,101341.72
2023-01-04T08:18:56.909Z,101342.59
2023-01-04T08:21:24.737Z,101341.47
2023-01-04T08:23:52.364Z,101346.75
2023-01-04T08:26:21.516Z,101349.22
2023-01-04T08:28:49.583Z,101349.94
2023-01-04T08:31:19.358Z,101340.72
2023-01-04T08:33:46.921Z,101342.31
2023-01-04T08:36:27.460Z,101353.00
2023-01-04T08:39:01.748Z,101349.19
2023-01-04T08:44:22.436Z,101355.19
2023-01-04T08:46:50.722Z,101345.25
2023-01-04T08:49:18.122Z,101344.97
2023-01-04T08:51:45.409Z,101349.41
2023-01-04T08:54:12.535Z,101349.28
2023-01-04T08:56:39.091Z,101357.28
2023-01-04T08:59:06.831Z,101359.84
2023-01-04T09:01:35.060Z,101361.44
2023-01-04T09:04:01.976Z,101355.91
2023-01-04T09:06:28.631Z,101367.47
2023-01-04T09:08:56.160Z,101360.19
2023-01-04T09:11:22.824Z,101364.63
2023-01-04T09:13:49.920Z,101351.09
2023-01-04T09:16:19.242Z,101349.25
2023-01-04T09:18:47.037Z,101357.22
2023-01-04T09:21:16.592Z,101349.84
2023-01-04T09:23:44.040Z,101341.47
2023-01-04T09:26:13.767Z,101346.66
2023-01-04T09:28:40.430Z,101342.84
2023-01-04T09:31:15.989Z,101334.59
2023-01-04T09:36:31.059Z,101345.19
2023-01-04T09:38:57.834Z,101340.50
2023-01-04T09:41:27.452Z,101339.50
2023-01-04T09:43:56.896Z,101345.66
2023-01-04T09:46:44.257Z,101343.66
2023-01-04T09:49:10.771Z,101351.66
2023-01-04T09:51:41.221Z,101333.56
2023-01-04T09:54:17.072Z,101350.53
2023-01-04T09:56:51.538Z,101354.09
2023-01-04T09:59:25.333Z,101340.56
2023-01-04T10:02:13.597Z,101333.16
2023-01-04T10:04:49.426Z,101336.59
2023-01-04T10:07:29.013Z,101341.28
2023-01-04T10:09:56.725Z,101342.16
2023-01-04T10:12:35.286Z,101341.16
2023-01-04T10:15:23.072Z,101333.78
2023-01-04T10:19:51.028Z,101326.38
2023-01-04T10:21:42.570Z,101324.38
2023-01-04T10:24:33.003Z,101336.22
2023-01-04T10:27:09.088Z,101332.66
2023-01-04T10:29:59.217Z,101339.06
2023-01-04T10:32:39.209Z,101332.66
2023-01-04T10:35:26.053Z,101336.47
2023-01-04T10:38:04.374Z,101332.91
2023-01-04T10:40:37.937Z,101329.22
2023-01-04T10:43:25.853Z,101336.34
2023-01-04T10:46:00.947Z,101328.34
2023-01-04T10:48:41.043Z,101329.22
2023-01-04T10:51:10.594Z,101313.94
2023-01-04T10:54:02.295Z,101316.66
2023-01-04T10:56:47.405Z,101321.22
2023-01-04T10:59:29.275Z,101328.34
2023-01-04T11:02:15.610Z,101319.25
2023-01-04T11:05:12.956Z,101310.38
2023-01-04T11:07:43.554Z,101315.81
2023-01-04T11:10:26.017Z,101323.06
2023-01-04T11:12:53.071Z,101307.69
2023-01-04T11:15:20.008Z,101318.50
2023-01-04T11:17:48.070Z,101312.38
2023-01-04T11:20:14.723Z,101315.94
2023-01-04T11:22:47.763Z,101320.34
2023-01-04T11:25:36.474Z,101319.38
2023-01-04T11:28:16.287Z,101312.97
2023-01-04T11:30:55.539Z,101316.66
2023-01-04T11:33:24.042Z,101313.81
2023-01-04T11:35:51.861Z,101320.97
2023-01-04T11:38:20.939Z,101310.00
2023-01-04T11:41:07.506Z,101309.84
2023-01-04T11:43:39.403Z,101294.47
2023-01-04T11:46:17.853Z,101295.31
2023-01-04T11:48:46.192Z,101306.03
2023-01-04T11:51:25.387Z,101306.16
2023-01-04T11:54:27.383Z,101317.97
2023-01-04T11:57:01.587Z,101323.41
2023-01-04T11:59:30.304Z,101316.25
2023-01-04T12:02:59.625Z,101318.13
2023-01-04T12:05:28.979Z,101301.88
2023-01-04T12:07:58.392Z,101309.84
2023-01-04T12:10:27.681Z,101312.69
2023-01-04T12:12:56.329Z,101313.56
2023-01-04T12:15:39.264Z,101316.25
2023-01-04T12:18:13.172Z,101314.41
2023-01-04T12:20:39.681Z,101319.69
2023-01-04T12:23:06.658Z,101308.88
2023-01-04T12:25:40.386Z,101303.44
2023-01-04T12:28:07.051Z,101314.16
2023-01-04T12:30:46.200Z,101316.00
2023-01-04T12:33:30.801Z,101299.75
2023-01-04T12:36:10.990Z,101316.72
2023-01-04T12:38:52.982Z,101304.31
2023-01-04T12:41:24.257Z,101312.16
2023-01-04T12:43:51.080Z,101310.44
2023-01-04T12:46:48.342Z,101310.44
2023-01-04T12:49:34.134Z,101313.88
2023-01-04T12:52:30.640Z,101299.09
2023-01-04T12:54:58.952Z,101296.97
2023-01-04T12:57:36.835Z,101286.00
2023-01-04T13:00:12.580Z,101312.97
2023-01-04T13:02:48.217Z,101301.13
2023-01-04T13:08:10.997Z,101289.75
2023-01-04T13:10:44.877Z,101293.19
2023-01-04T13:13:28.510Z,101283.06
2023-01-04T13:16:18.150Z,101289.22
2023-01-04T13:18:59.222Z,101289.09
2023-01-04T13:21:31.421Z,101288.22
2023-01-04T13:24:17.151Z,101296.22
2023-01-04T13:26:51.277Z,101305.94
2023-01-04T13:29:25.616Z,101303.09
2023-01-04T13:31:56.522Z,101295.94
2023-01-04T13:34:23.198Z,101294.97
2023-01-04T13:36:54.650Z,101296.09
2023-01-04T13:39:21.878Z,101298.94
2023-01-04T13:41:48.823Z,101298.94
2023-01-04T13:47:30.181Z,101302.50
2023-01-04T13:49:56.788Z,101305.22
2023-01-04T13:55:17.566Z,101303.50
2023-01-04T13:58:17.555Z,101296.34
2023-01-04T14:00:51.403Z,101298.94
2023-01-04T14:03:31.553Z,101298.94
2023-01-04T14:06:10.478Z,101298.78
2023-01-04T14:08:46.655Z,101294.09
2023-01-04T14:12:03.783Z,101277.84
2023-01-04T14:15:22.573Z,101269.44
2023-01-04T14:17:54.738Z,101272.88
2023-01-04T14:20:22.804Z,101267.44
2023-01-04T14:22:49.299Z,101254.88
2023-01-04T14:25:33.923Z,101268.44
2023-01-04T14:28:19.060Z,101262.03
2023-01-04T14:30:48.046Z,101259.31
2023-01-04T14:33:18.843Z,101251.19
2023-01-04T14:35:48.948Z,101256.59
2023-01-04T14:38:18.987Z,101249.34
2023-01-04T14:40:46.157Z,101262.75
2023-01-04T14:43:31.293Z,101268.16
2023-01-04T14:45:57.896Z,101269.75
2023-01-04T14:48:24.439Z,101276.16
2023-01-04T14:50:51.281Z,101288.72
2023-01-04T14:53:19.137Z,101283.31
2023-01-04T14:55:45.619Z,101284.19
2023-01-04T14:58:12.151Z,101278.78
2023-01-04T15:00:38.639Z,101271.59
2023-01-04T15:03:05.366Z,101272.59
2023-01-04T15:05:37.465Z,101273.47
2023-01-04T15:08:04.715Z,101277.03
2023-01-04T15:10:31.315Z,101272.59
2023-01-04T15:13:00.563Z,101274.31
2023-01-04T15:15:27.459Z,101263.47
2023-01-04T15:17:53.945Z,101267.94
2023-01-04T15:20:20.517Z,101259.66
2023-01-04T15:22:47.171Z,101261.50
2023-01-04T15:25:13.890Z,101248.97
2023-01-04T15:27:42.801Z,101256.19
2023-01-04T15:30:11.483Z,101256.09
2023-01-04T15:32:38.099Z,101261.50
2023-01-04T15:35:06.939Z,101262.50
2023-01-04T15:37:33.480Z,101252.63
2023-01-04T15:40:02.900Z,101245.75
2023-01-04T15:42:48.690Z,101246.75
2023-01-04T15:45:15.575Z,101257.59
2023-01-04T15:47:42.571Z,101249.47
2023-01-04T15:50:09.845Z,101241.59
2023-01-04T15:52:36.466Z,101250.72
2023-01-04T15:55:03.424Z,101266.28
2023-01-04T15:57:30.132Z,101265.56
2023-01-04T15:59:56.749Z,101260.25
2023-01-04T16:02:26.395Z,101256.69
2023-01-04T16:04:53.023Z,101245.13
2023-01-04T16:07:19.564Z,101243.28
2023-01-04T16:09:47.635Z,101243.41
2023-01-04T16:12:32.532Z,101249.97
2023-01-04T16:14:59.076Z,101257.38
2023-01-04T16:17:25.927Z,101251.22
2023-01-04T16:19:52.400Z,101244.09
2023-01-04T16:22:18.928Z,101237.81
2023-01-04T16:25:09.719Z,101237.81
2023-01-04T16:27:35.512Z,101229.69
2023-01-04T16:30:04.270Z,101242.50
2023-01-04T16:32:31.001Z,101237.22
2023-01-04T16:34:57.561Z,101222.97
2023-01-04T16:37:28.324Z,101223.22
2023-01-04T16:40:06.235Z,101220.78
2023-01-04T16:42:37.834Z,101218.94
2023-01-04T16:45:05.375Z,101219.22
2023-01-04T16:47:41.748Z,101231.03
2023-01-04T16:50:09.829Z,101239.44
2023-01-04T16:52:36.723Z,101252.25
2023-01-04T16:55:03.647Z,101251.53
2023-01-04T16:57:30.307Z,101266.06
2023-01-04T16:59:58.012Z,101267.06
2023-01-04T17:02:24.726Z,101282.44
2023-01-04T17:04:56.898Z,101280.72
2023-01-04T17:07:23.585Z,101266.19
2023-01-04T17:09:50.132Z,101256.34
2023-01-04T17:12:46.382Z,101252.66
2023-01-04T17:15:41.339Z,101252.50
2023-01-04T17:17:54.216Z,101247.09
2023-01-04T17:20:20.775Z,101256.09
2023-01-04T17:22:47.397Z,101268.63
2023-01-04T17:25:15.001Z,101266.06
2023-01-04T17:27:41.656Z,101279.59
2023-01-04T17:30:09.043Z,101281.44
2023-01-04T17:32:35.581Z,101287.72
2023-01-04T17:35:02.119Z,101280.47
2023-01-04T17:37:28.664Z,101284.16
2023-01-04T17:39:55.249Z,101301.41
2023-01-04T17:42:23.000Z,101300.66
2023-01-04T17:44:50.339Z,101289.84
2023-01-04T17:47:16.832Z,101277.28
2023-01-04T17:49:43.366Z,101294.66
2023-01-04T17:52:13.665Z,101307.22
2023-01-04T17:54:43.118Z,101312.63
2023-01-04T17:57:09.653Z,101319.03
2023-01-04T17:59:36.128Z,101303.66
2023-01-04T18:02:02.753Z,101299.22
2023-01-04T18:04:29.299Z,101300.06
2023-01-04T18:06:55.811Z,101307.34
2023-01-04T18:09:24.546Z,101302.78
2023-01-04T18:11:51.330Z,101305.63
2023-01-04T18:14:18.186Z,101313.88
2023-01-04T18:16:57.897Z,101317.56
2023-01-04T18:19:27.651Z,101318.44
2023-01-04T18:21:54.919Z,101320.28
2023-01-04T18:24:38.374Z,101328.28
2023-01-04T18:27:22.607Z,101325.56
2023-01-04T18:29:50.818Z,101311.03
2023-01-04T18:32:17.687Z,101289.50
2023-01-04T18:34:44.382Z,101304.03
2023-01-04T18:37:11.012Z,101304.03
2023-01-04T18:39:37.585Z,101319.44
2023-01-04T18:42:04.124Z,101312.28
2023-01-04T18:44:33.814Z,101314.00
2023-01-04T18:47:04.889Z,101324.97
2023-01-04T18:49:31.812Z,101332.25
2023-01-04T18:51:58.372Z,101315.13
2023-01-04T18:54:25.053Z,101313.41
2023-01-04T18:56:57.322Z,101307.13
2023-01-04T18:59:27.769Z,101316.13
2023-01-04T19:01:54.472Z,101329.78
2023-01-04T19:04:21.186Z,101321.66
2023-01-04T19:06:47.753Z,101322.66
2023-01-04T19:09:14.257Z,101321.66
2023-01-04T19:11:40.811Z,101322.53
2023-01-04T19:14:07.353Z,101323.38
2023-01-04T19:16:37.122Z,101326.94
2023-01-04T19:19:03.876Z,101342.34
2023-01-04T19:21:30.438Z,101335.94
2023-01-04T19:23:56.983Z,101349.59
2023-01-04T19:26:24.619Z,101352.19
2023-01-04T19:28:51.611Z,101362.16
2023-01-04T19:31:23.041Z,101356.00
2023-01-04T19:33:50.785Z,101363.16
2023-01-04T19:36:18.932Z,101357.72
2023-01-04T19:38:46.012Z,101363.16
2023-01-04T19:41:27.751Z,101364.13
2023-01-04T19:43:57.948Z,101345.91
2023-01-04T19:46:24.745Z,101365.00
2023-01-04T19:48:51.347Z,101364.13
2023-01-04T19:51:17.906Z,101359.56
2023-01-04T19:53:45.048Z,101365.00
2023-01-04T19:56:13.618Z,101374.84
2023-01-04T19:58:40.651Z,101367.69
2023-01-04T20:01:07.736Z,101373.84
2023-01-04T20:03:34.490Z,101365.00
2023-01-04T20:06:04.524Z,101365.84
2023-01-04T20:08:31.809Z,101377.53
2023-01-04T20:10:59.735Z,101382.97
2023-01-04T20:13:27.820Z,101378.66
2023-01-04T20:15:54.484Z,101379.53
2023-01-04T20:18:23.852Z,101384.94
2023-01-04T20:20:52.063Z,101392.31
2023-01-04T20:23:19.553Z,101392.31
2023-01-04T20:25:48.535Z,101396.03
2023-01-04T20:28:16.345Z,101392.44
2023-01-04T20:30:43.272Z,101388.16
2023-01-04T20:33:10.198Z,101401.91
2023-01-04T20:35:42.291Z,101403.72
2023-01-04T20:38:09.964Z,101406.56
2023-01-04T20:40:38.499Z,101404.84
2023-01-04T20:43:23.794Z,101399.31
2023-01-04T20:45:50.454Z,101399.09
2023-01-04T20:48:17.067Z,101406.22
2023-01-04T20:50:43.928Z,101395.38
2023-01-04T20:53:11.545Z,101397.00
2023-01-04T20:55:42.296Z,101395.91
2023-01-04T20:58:10.630Z,101397.63
2023-01-04T21:00:38.749Z,101386.78
2023-01-04T21:03:07.458Z,101400.19
2023-01-04T21:05:39.067Z,101409.19
2023-01-04T21:08:06.389Z,101411.88
2023-01-04T21:10:33.259Z,101414.59
2023-01-04T21:12:59.908Z,101418.16
2023-01-04T21:15:27.205Z,101413.59
2023-01-04T21:17:53.836Z,101403.63
2023-01-04T21:20:21.600Z,101406.34
2023-01-04T21:22:48.266Z,101407.19
2023-01-04T21:25:14.851Z,101413.59
2023-01-04T21:27:41.443Z,101420.00
2023-01-04T21:30:08.366Z,101413.84
2023-01-04T21:32:34.920Z,101414.00
2023-01-04T21:35:02.772Z,101431.09
2023-01-04T21:37:30.462Z,101421.38
2023-01-04T21:39:56.994Z,101429.63
2023-01-04T21:42:23.545Z,101417.94
2023-01-04T21:44:50.647Z,101415.09
2023-01-04T21:47:17.215Z,101425.06
2023-01-04T21:49:43.931Z,101411.63
2023-01-04T21:52:11.461Z,101432.44
2023-01-04T21:54:38.883Z,101424.31
2023-01-04T21:57:08.231Z,101430.81
2023-01-04T21:59:35.834Z,101431.69
2023-01-04T22:02:02.908Z,101443.47
2023-01-04T22:04:29.820Z,101433.63
2023-01-04T22:06:56.526Z,101426.50
2023-01-04T22:09:23.418Z,101435.59
2023-01-04T22:11:50.191Z,101444.59
2023-01-04T22:14:18.143Z,101431.31
2023-01-04T22:16:44.942Z,101442.13
2023-01-04T22:19:13.109Z,101440.41
2023-01-04T22:21:40.247Z,101441.28
2023-01-04T22:24:10.015Z,101441.41
2023-01-04T22:26:36.497Z,101470.31
2023-01-04T22:29:04.077Z,101456.91
2023-01-04T22:31:30.808Z,101448.78
2023-01-04T22:33:57.463Z,101453.34
2023-01-04T22:36:24.239Z,101457.78
2023-01-04T22:38:52.361Z,101457.91
2023-01-04T22:41:21.565Z,101457.91
2023-01-04T22:43:53.136Z,101449.91
2023-01-04T22:46:19.753Z,101459.00
2023-01-04T22:48:46.325Z,101461.97
2023-01-04T22:51:15.194Z,101463.19
2023-01-04T22:53:42.025Z,101461.59
2023-01-04T22:56:22.404Z,101464.56
2023-01-04T22:58:54.157Z,101467.41
2023-01-04T23:01:27.442Z,101460.38
2023-01-04T23:03:54.928Z,101466.16
2023-01-04T23:06:23.521Z,101471.84
2023-01-04T23:08:58.870Z,101474.91
2023-01-04T23:11:26.256Z,101484.75
2023-01-04T23:13:53.065Z,101490.28
2023-01-04T23:16:20.081Z,101483.50
2023-01-04T23:18:47.016Z,101486.72
2023-01-04T23:21:15.533Z,101491.63
2023-01-04T23:23:42.349Z,101501.94
2023-01-04T23:26:14.321Z,101508.47
2023-01-04T23:28:41.704Z,101506.00
2023-01-04T23:31:10.749Z,101506.00
2023-01-04T23:33:37.989Z,101494.41
2023-01-04T23:36:16.692Z,101500.78
2023-01-04T23:38:44.790Z,101509.88
2023-01-04T23:41:12.549Z,101525.25
2023-01-04T23:43:39.156Z,101523.53
2023-01-04T23:46:11.849Z,101519.09
2023-01-04T23:48:38.527Z,101520.09
2023-01-04T23:51:05.263Z,101528.19
2023-01-04T23:53:31.872Z,101513.94
2023-01-04T23:56:13.296Z,101513.94
2023-01-04T23:58:39.976Z,101523.03
